Cardinal — V7IB3 — position and weather

sailwx.info

Track history (hours):
 
Tides and Currents Weather Stations Pressure Air Temp Water Temp Dewpoint Dewpoint Depression Visibility Wind Speed Wind Dir Waves Ship Positions

Cardinal

Last reported at 2015-Dec-14 05:33 UTC. Time now 2016-Feb-13 23:40 UTC.
Position N 36°26' E 014°37'.
Warning: this ship's position is months out of date.

Length 191 m; draft 12.4 m.

Type: Cargo ship. MMSI: 538002349.

Date/timePositionNaut miles runAvg speedWind from/ knotsBaromVisibWave heightAir tempDewpointWater temp
2015-Dec-14 05:33N 36°26' E 014°37'1212.1
2015-Dec-14 04:33N 36°29' E 014°22'1212.0
2015-Dec-14 03:33N 36°32' E 014°07'1212.2
2015-Dec-14 02:32N 36°35' E 013°52'6212.0
2015-Dec-13 21:23N 36°49' E 012°37'6711.4
2015-Dec-13 15:33N 37°17' E 011°21'1211.8
2015-Dec-13 14:32N 37°22' E 011°08'3712.2
2015-Dec-13 11:32N 37°32' E 010°24'  
2015-Dec-10 16:33N 36°02' W 005°18'9 8.4
2015-Dec-10 15:30N 36°10' W 005°23'0 0.1
2015-Dec-10 10:31N 36°10' W 005°23'4 4.2
2015-Dec-10 09:33N 36°06' W 005°23'6 6.3
2015-Dec-10 08:33N 36°06' W 005°15'3 2.9
2015-Dec-10 07:33N 36°06' W 005°19'4 3.6
2015-Dec-10 06:33N 36°08' W 005°22'0 0.1
2015-Dec-10 05:33N 36°08' W 005°22'0 0.1
2015-Dec-10 04:33N 36°08' W 005°22'0 0.1
2015-Dec-10 03:33N 36°08' W 005°22'0 0.1
2015-Dec-10 02:33N 36°08' W 005°22'0 0.1
2015-Dec-10 01:33N 36°08' W 005°22'0 0.0
2015-Dec-10 00:33N 36°08' W 005°22'0 0.2
2015-Dec-09 23:32N 36°08' W 005°22'0 0.2
2015-Dec-09 22:33N 36°08' W 005°22'2 1.9
2015-Dec-09 21:33N 36°06' W 005°22'5 5.0
2015-Dec-09 20:33N 36°07' W 005°16'5 4.6
2015-Dec-09 19:31N 36°02' W 005°17'4 4.4
2015-Dec-09 18:33N 35°60' W 005°21'6 5.7
2015-Dec-09 17:33N 35°58' W 005°28'1110.1
2015-Dec-09 16:26N 35°54' W 005°41'12311.1
2015-Dec-09 05:19N 34°55' W 007°53'14011.0
2015-Dec-08 16:33N 33°42' W 010°18'1511.3
2015-Dec-08 15:12N 33°34' W 010°34'4411.6
2015-Dec-08 11:25N 33°11' W 011°18'30111.6
2015-Dec-07 09:32N 30°35' W 016°21'5811.7
2015-Dec-07 04:33N 29°58' W 017°13'2311.5
2015-Dec-07 02:33N 29°43' W 017°33'  
Track history (hours):
 
Tides and Currents Weather Stations Pressure Air Temp Water Temp Dewpoint Dewpoint Depression Visibility Wind Speed Wind Dir Waves Ship Positions

Cardinal

Last reported at 2015-Dec-14 05:33 UTC. Time now 2016-Feb-13 23:40 UTC.
Position N 36°26' E 014°37'.
Warning: this ship's position is months out of date.

Length 191 m; draft 12.4 m.

Type: Cargo ship. MMSI: 538002349.

Date/timePositionNaut miles runAvg speedWind from/ knotsBaromVisibWave heightAir tempDewpointWater temp
2015-Dec-14 05:33N 36°26' E 014°37'1212.1
2015-Dec-14 04:33N 36°29' E 014°22'1212.0
2015-Dec-14 03:33N 36°32' E 014°07'1212.2
2015-Dec-14 02:32N 36°35' E 013°52'6212.0
2015-Dec-13 21:23N 36°49' E 012°37'6711.4
2015-Dec-13 15:33N 37°17' E 011°21'1211.8
2015-Dec-13 14:32N 37°22' E 011°08'3712.2
2015-Dec-13 11:32N 37°32' E 010°24'  
2015-Dec-10 16:33N 36°02' W 005°18'9 8.4
2015-Dec-10 15:30N 36°10' W 005°23'0 0.1
2015-Dec-10 10:31N 36°10' W 005°23'4 4.2
2015-Dec-10 09:33N 36°06' W 005°23'6 6.3
2015-Dec-10 08:33N 36°06' W 005°15'3 2.9
2015-Dec-10 07:33N 36°06' W 005°19'4 3.6
2015-Dec-10 06:33N 36°08' W 005°22'0 0.1
2015-Dec-10 05:33N 36°08' W 005°22'0 0.1
2015-Dec-10 04:33N 36°08' W 005°22'0 0.1
2015-Dec-10 03:33N 36°08' W 005°22'0 0.1
2015-Dec-10 02:33N 36°08' W 005°22'0 0.1
2015-Dec-10 01:33N 36°08' W 005°22'0 0.0
2015-Dec-10 00:33N 36°08' W 005°22'0 0.2
2015-Dec-09 23:32N 36°08' W 005°22'0 0.2
2015-Dec-09 22:33N 36°08' W 005°22'2 1.9
2015-Dec-09 21:33N 36°06' W 005°22'5 5.0
2015-Dec-09 20:33N 36°07' W 005°16'5 4.6
2015-Dec-09 19:31N 36°02' W 005°17'4 4.4
2015-Dec-09 18:33N 35°60' W 005°21'6 5.7
2015-Dec-09 17:33N 35°58' W 005°28'1110.1
2015-Dec-09 16:26N 35°54' W 005°41'12311.1
2015-Dec-09 05:19N 34°55' W 007°53'14011.0
2015-Dec-08 16:33N 33°42' W 010°18'1511.3
2015-Dec-08 15:12N 33°34' W 010°34'4411.6
2015-Dec-08 11:25N 33°11' W 011°18'30111.6
2015-Dec-07 09:32N 30°35' W 016°21'5811.7
2015-Dec-07 04:33N 29°58' W 017°13'2311.5
2015-Dec-07 02:33N 29°43' W 017°33'  

Dump ship's entire track history